sensor_id;sensor_type;location;lat;lon;timestamp;P1;durP1;ratioP1;P2;durP2;ratioP2
3959;SDS011;1994;48.640;8.894;2023-04-19T00:00:38;6.63;;;5.43;;
3959;SDS011;1994;48.640;8.894;2023-04-19T00:03:05;7.10;;;5.80;;
3959;SDS011;1994;48.640;8.894;2023-04-19T00:05:32;7.17;;;6.47;;
3959;SDS011;1994;48.640;8.894;2023-04-19T00:07:58;6.83;;;5.47;;
3959;SDS011;1994;48.640;8.894;2023-04-19T00:10:24;7.60;;;6.70;;
3959;SDS011;1994;48.640;8.894;2023-04-19T00:12:50;6.97;;;5.53;;
3959;SDS011;1994;48.640;8.894;2023-04-19T00:15:16;8.63;;;6.10;;
3959;SDS011;1994;48.640;8.894;2023-04-19T00:17:42;7.57;;;6.27;;
3959;SDS011;1994;48.640;8.894;2023-04-19T00:20:08;7.63;;;6.13;;
3959;SDS011;1994;48.640;8.894;2023-04-19T00:22:36;7.80;;;6.07;;
3959;SDS011;1994;48.640;8.894;2023-04-19T00:25:03;6.97;;;6.23;;
3959;SDS011;1994;48.640;8.894;2023-04-19T00:27:29;6.20;;;5.57;;
3959;SDS011;1994;48.640;8.894;2023-04-19T00:29:56;8.77;;;6.20;;
3959;SDS011;1994;48.640;8.894;2023-04-19T00:32:22;7.60;;;6.07;;
3959;SDS011;1994;48.640;8.894;2023-04-19T00:34:48;7.50;;;5.87;;
3959;SDS011;1994;48.640;8.894;2023-04-19T00:37:13;9.40;;;6.20;;
3959;SDS011;1994;48.640;8.894;2023-04-19T00:39:40;8.37;;;6.67;;
3959;SDS011;1994;48.640;8.894;2023-04-19T00:42:05;10.47;;;7.97;;
3959;SDS011;1994;48.640;8.894;2023-04-19T00:44:31;14.47;;;8.20;;
3959;SDS011;1994;48.640;8.894;2023-04-19T00:46:57;11.33;;;7.90;;
3959;SDS011;1994;48.640;8.894;2023-04-19T00:49:25;11.10;;;7.20;;
3959;SDS011;1994;48.640;8.894;2023-04-19T00:51:51;12.60;;;8.10;;
3959;SDS011;1994;48.640;8.894;2023-04-19T00:54:18;10.20;;;8.30;;
3959;SDS011;1994;48.640;8.894;2023-04-19T00:56:44;10.50;;;7.70;;
3959;SDS011;1994;48.640;8.894;2023-04-19T00:59:11;7.87;;;7.07;;
3959;SDS011;1994;48.640;8.894;2023-04-19T01:01:38;8.97;;;7.40;;
3959;SDS011;1994;48.640;8.894;2023-04-19T01:04:05;9.03;;;8.10;;
3959;SDS011;1994;48.640;8.894;2023-04-19T01:06:33;7.33;;;6.63;;
3959;SDS011;1994;48.640;8.894;2023-04-19T01:09:00;14.90;;;8.47;;
3959;SDS011;1994;48.640;8.894;2023-04-19T01:11:26;13.53;;;7.00;;
3959;SDS011;1994;48.640;8.894;2023-04-19T01:13:53;12.23;;;7.17;;
3959;SDS011;1994;48.640;8.894;2023-04-19T01:16:20;8.90;;;6.63;;
3959;SDS011;1994;48.640;8.894;2023-04-19T01:18:46;7.33;;;6.63;;
3959;SDS011;1994;48.640;8.894;2023-04-19T01:21:11;11.00;;;7.10;;
3959;SDS011;1994;48.640;8.894;2023-04-19T01:23:37;9.17;;;7.13;;
3959;SDS011;1994;48.640;8.894;2023-04-19T01:26:03;8.70;;;6.17;;
3959;SDS011;1994;48.640;8.894;2023-04-19T01:28:30;10.00;;;6.63;;
3959;SDS011;1994;48.640;8.894;2023-04-19T01:30:56;7.90;;;6.30;;
3959;SDS011;1994;48.640;8.894;2023-04-19T01:33:22;8.90;;;6.33;;
3959;SDS011;1994;48.640;8.894;2023-04-19T01:35:48;8.10;;;6.30;;
3959;SDS011;1994;48.640;8.894;2023-04-19T01:38:15;7.40;;;6.70;;
3959;SDS011;1994;48.640;8.894;2023-04-19T01:40:41;10.27;;;6.53;;
3959;SDS011;1994;48.640;8.894;2023-04-19T01:43:07;7.30;;;6.30;;
3959;SDS011;1994;48.640;8.894;2023-04-19T01:45:37;8.90;;;7.17;;
3959;SDS011;1994;48.640;8.894;2023-04-19T01:48:02;10.40;;;6.83;;
3959;SDS011;1994;48.640;8.894;2023-04-19T01:50:29;8.30;;;6.73;;
3959;SDS011;1994;48.640;8.894;2023-04-19T01:52:57;8.97;;;7.37;;
3959;SDS011;1994;48.640;8.894;2023-04-19T01:55:24;6.50;;;5.90;;
3959;SDS011;1994;48.640;8.894;2023-04-19T01:57:50;9.53;;;6.20;;
3959;SDS011;1994;48.640;8.894;2023-04-19T02:00:17;7.40;;;6.67;;
3959;SDS011;1994;48.640;8.894;2023-04-19T02:02:43;10.57;;;7.10;;
3959;SDS011;1994;48.640;8.894;2023-04-19T02:05:09;12.43;;;8.10;;
3959;SDS011;1994;48.640;8.894;2023-04-19T02:07:35;12.27;;;8.30;;
3959;SDS011;1994;48.640;8.894;2023-04-19T02:10:01;7.80;;;6.40;;
3959;SDS011;1994;48.640;8.894;2023-04-19T02:12:29;10.90;;;6.93;;
3959;SDS011;1994;48.640;8.894;2023-04-19T02:14:57;7.97;;;6.17;;
3959;SDS011;1994;48.640;8.894;2023-04-19T02:17:26;15.03;;;7.73;;
3959;SDS011;1994;48.640;8.894;2023-04-19T02:19:52;7.50;;;6.17;;
3959;SDS011;1994;48.640;8.894;2023-04-19T02:22:18;7.93;;;6.60;;
3959;SDS011;1994;48.640;8.894;2023-04-19T02:24:44;8.70;;;6.80;;
3959;SDS011;1994;48.640;8.894;2023-04-19T02:27:11;8.83;;;6.73;;
3959;SDS011;1994;48.640;8.894;2023-04-19T02:29:37;8.97;;;5.70;;
3959;SDS011;1994;48.640;8.894;2023-04-19T02:32:04;9.33;;;7.20;;
3959;SDS011;1994;48.640;8.894;2023-04-19T02:34:34;9.37;;;6.77;;
3959;SDS011;1994;48.640;8.894;2023-04-19T02:37:00;7.87;;;6.40;;
3959;SDS011;1994;48.640;8.894;2023-04-19T02:39:26;8.17;;;6.47;;
3959;SDS011;1994;48.640;8.894;2023-04-19T02:41:52;8.03;;;6.77;;
3959;SDS011;1994;48.640;8.894;2023-04-19T02:44:17;8.33;;;7.23;;
3959;SDS011;1994;48.640;8.894;2023-04-19T02:46:49;8.00;;;6.40;;
3959;SDS011;1994;48.640;8.894;2023-04-19T02:49:16;9.30;;;7.07;;
3959;SDS011;1994;48.640;8.894;2023-04-19T02:51:43;9.73;;;7.00;;
3959;SDS011;1994;48.640;8.894;2023-04-19T02:54:08;7.90;;;7.10;;
3959;SDS011;1994;48.640;8.894;2023-04-19T02:56:35;9.53;;;7.27;;
3959;SDS011;1994;48.640;8.894;2023-04-19T02:59:01;9.27;;;7.07;;
3959;SDS011;1994;48.640;8.894;2023-04-19T03:01:28;8.43;;;6.80;;
3959;SDS011;1994;48.640;8.894;2023-04-19T03:03:54;10.40;;;7.00;;
3959;SDS011;1994;48.640;8.894;2023-04-19T03:06:20;11.67;;;7.03;;
3959;SDS011;1994;48.640;8.894;2023-04-19T03:08:46;7.67;;;6.30;;
3959;SDS011;1994;48.640;8.894;2023-04-19T03:11:14;10.23;;;7.17;;
3959;SDS011;1994;48.640;8.894;2023-04-19T03:13:40;9.77;;;7.57;;
3959;SDS011;1994;48.640;8.894;2023-04-19T03:16:06;8.63;;;7.17;;
3959;SDS011;1994;48.640;8.894;2023-04-19T03:18:33;12.20;;;8.50;;
3959;SDS011;1994;48.640;8.894;2023-04-19T03:20:59;12.70;;;7.30;;
3959;SDS011;1994;48.640;8.894;2023-04-19T03:23:25;8.97;;;6.63;;
3959;SDS011;1994;48.640;8.894;2023-04-19T03:25:51;11.13;;;7.93;;
3959;SDS011;1994;48.640;8.894;2023-04-19T03:28:17;11.17;;;7.67;;
3959;SDS011;1994;48.640;8.894;2023-04-19T03:30:43;9.47;;;7.10;;
3959;SDS011;1994;48.640;8.894;2023-04-19T03:33:09;9.47;;;7.13;;
3959;SDS011;1994;48.640;8.894;2023-04-19T03:35:34;12.00;;;7.20;;
3959;SDS011;1994;48.640;8.894;2023-04-19T03:38:00;9.60;;;8.03;;
3959;SDS011;1994;48.640;8.894;2023-04-19T03:40:26;11.30;;;8.13;;
3959;SDS011;1994;48.640;8.894;2023-04-19T03:42:51;11.93;;;7.50;;
3959;SDS011;1994;48.640;8.894;2023-04-19T03:45:17;15.17;;;8.90;;
3959;SDS011;1994;48.640;8.894;2023-04-19T03:47:43;8.90;;;7.57;;
3959;SDS011;1994;48.640;8.894;2023-04-19T03:50:09;12.93;;;8.63;;
3959;SDS011;1994;48.640;8.894;2023-04-19T03:52:35;9.50;;;7.57;;
3959;SDS011;1994;48.640;8.894;2023-04-19T03:55:01;13.60;;;8.50;;
3959;SDS011;1994;48.640;8.894;2023-04-19T03:57:27;10.70;;;7.90;;
3959;SDS011;1994;48.640;8.894;2023-04-19T03:59:52;12.50;;;7.50;;
3959;SDS011;1994;48.640;8.894;2023-04-19T04:02:18;12.67;;;7.93;;
3959;SDS011;1994;48.640;8.894;2023-04-19T04:04:44;8.80;;;7.30;;
3959;SDS011;1994;48.640;8.894;2023-04-19T04:07:09;10.23;;;7.77;;
3959;SDS011;1994;48.640;8.894;2023-04-19T04:09:35;14.10;;;9.03;;
3959;SDS011;1994;48.640;8.894;2023-04-19T04:12:01;15.93;;;8.97;;
3959;SDS011;1994;48.640;8.894;2023-04-19T04:14:27;11.20;;;8.17;;
3959;SDS011;1994;48.640;8.894;2023-04-19T04:16:52;10.63;;;7.00;;
3959;SDS011;1994;48.640;8.894;2023-04-19T04:19:18;9.67;;;7.73;;
3959;SDS011;1994;48.640;8.894;2023-04-19T04:21:45;13.40;;;8.53;;
3959;SDS011;1994;48.640;8.894;2023-04-19T04:24:13;10.13;;;8.10;;
3959;SDS011;1994;48.640;8.894;2023-04-19T04:26:38;10.77;;;7.90;;
3959;SDS011;1994;48.640;8.894;2023-04-19T04:29:05;14.73;;;8.77;;
3959;SDS011;1994;48.640;8.894;2023-04-19T04:31:30;11.23;;;8.37;;
3959;SDS011;1994;48.640;8.894;2023-04-19T04:33:56;10.10;;;8.00;;
3959;SDS011;1994;48.640;8.894;2023-04-19T04:36:22;13.77;;;9.20;;
3959;SDS011;1994;48.640;8.894;2023-04-19T04:38:48;15.83;;;7.60;;
3959;SDS011;1994;48.640;8.894;2023-04-19T04:41:13;12.53;;;8.40;;
3959;SDS011;1994;48.640;8.894;2023-04-19T04:43:40;9.60;;;7.80;;
3959;SDS011;1994;48.640;8.894;2023-04-19T04:46:06;14.00;;;9.37;;
3959;SDS011;1994;48.640;8.894;2023-04-19T04:48:32;13.37;;;9.87;;
3959;SDS011;1994;48.640;8.894;2023-04-19T04:50:58;10.67;;;8.53;;
3959;SDS011;1994;48.640;8.894;2023-04-19T04:53:25;14.87;;;10.30;;
3959;SDS011;1994;48.640;8.894;2023-04-19T04:55:53;15.20;;;9.93;;
3959;SDS011;1994;48.640;8.894;2023-04-19T04:58:19;13.80;;;9.00;;
3959;SDS011;1994;48.640;8.894;2023-04-19T05:00:44;11.13;;;8.87;;
3959;SDS011;1994;48.640;8.894;2023-04-19T05:03:10;10.80;;;7.37;;
3959;SDS011;1994;48.640;8.894;2023-04-19T05:05:36;14.27;;;9.80;;
3959;SDS011;1994;48.640;8.894;2023-04-19T05:08:02;12.60;;;9.20;;
3959;SDS011;1994;48.640;8.894;2023-04-19T05:10:28;10.03;;;8.33;;
3959;SDS011;1994;48.640;8.894;2023-04-19T05:12:54;11.20;;;8.10;;
3959;SDS011;1994;48.640;8.894;2023-04-19T05:15:20;14.83;;;8.87;;
3959;SDS011;1994;48.640;8.894;2023-04-19T05:17:45;13.80;;;8.57;;
3959;SDS011;1994;48.640;8.894;2023-04-19T05:20:11;12.20;;;8.27;;
3959;SDS011;1994;48.640;8.894;2023-04-19T05:22:39;12.50;;;8.07;;
3959;SDS011;1994;48.640;8.894;2023-04-19T05:25:05;14.37;;;10.03;;
3959;SDS011;1994;48.640;8.894;2023-04-19T05:27:31;18.50;;;11.77;;
3959;SDS011;1994;48.640;8.894;2023-04-19T05:29:57;16.03;;;10.87;;
3959;SDS011;1994;48.640;8.894;2023-04-19T05:32:22;14.40;;;10.77;;
3959;SDS011;1994;48.640;8.894;2023-04-19T05:34:48;12.43;;;8.80;;
3959;SDS011;1994;48.640;8.894;2023-04-19T05:37:14;15.70;;;9.67;;
3959;SDS011;1994;48.640;8.894;2023-04-19T05:39:40;17.63;;;10.50;;
3959;SDS011;1994;48.640;8.894;2023-04-19T05:42:05;16.80;;;10.53;;
3959;SDS011;1994;48.640;8.894;2023-04-19T05:44:31;14.73;;;10.80;;
3959;SDS011;1994;48.640;8.894;2023-04-19T05:46:57;13.80;;;10.13;;
3959;SDS011;1994;48.640;8.894;2023-04-19T05:49:23;16.60;;;11.23;;
3959;SDS011;1994;48.640;8.894;2023-04-19T05:51:48;20.03;;;12.90;;
3959;SDS011;1994;48.640;8.894;2023-04-19T05:54:14;20.80;;;13.07;;
3959;SDS011;1994;48.640;8.894;2023-04-19T05:56:40;16.13;;;11.00;;
3959;SDS011;1994;48.640;8.894;2023-04-19T05:59:06;18.23;;;11.97;;
3959;SDS011;1994;48.640;8.894;2023-04-19T06:01:32;17.33;;;11.07;;
3959;SDS011;1994;48.640;8.894;2023-04-19T06:03:59;18.53;;;10.73;;
3959;SDS011;1994;48.640;8.894;2023-04-19T06:06:24;18.43;;;13.50;;
3959;SDS011;1994;48.640;8.894;2023-04-19T06:08:51;15.10;;;10.40;;
3959;SDS011;1994;48.640;8.894;2023-04-19T06:11:17;14.83;;;10.77;;
3959;SDS011;1994;48.640;8.894;2023-04-19T06:13:43;11.60;;;9.33;;
3959;SDS011;1994;48.640;8.894;2023-04-19T06:16:09;14.90;;;10.40;;
3959;SDS011;1994;48.640;8.894;2023-04-19T06:18:34;14.17;;;11.93;;
3959;SDS011;1994;48.640;8.894;2023-04-19T06:21:00;13.83;;;9.50;;
3959;SDS011;1994;48.640;8.894;2023-04-19T06:23:26;14.50;;;8.70;;
3959;SDS011;1994;48.640;8.894;2023-04-19T06:25:52;14.60;;;10.50;;
3959;SDS011;1994;48.640;8.894;2023-04-19T06:28:17;16.53;;;9.60;;
3959;SDS011;1994;48.640;8.894;2023-04-19T06:30:43;27.73;;;15.77;;
3959;SDS011;1994;48.640;8.894;2023-04-19T06:33:09;16.40;;;9.30;;
3959;SDS011;1994;48.640;8.894;2023-04-19T06:35:35;14.03;;;9.37;;
3959;SDS011;1994;48.640;8.894;2023-04-19T06:38:01;12.67;;;8.60;;
3959;SDS011;1994;48.640;8.894;2023-04-19T06:40:27;15.97;;;10.80;;
3959;SDS011;1994;48.640;8.894;2023-04-19T06:42:53;14.37;;;9.20;;
3959;SDS011;1994;48.640;8.894;2023-04-19T06:45:19;14.63;;;9.50;;
3959;SDS011;1994;48.640;8.894;2023-04-19T06:47:45;20.17;;;14.17;;
3959;SDS011;1994;48.640;8.894;2023-04-19T06:50:11;25.47;;;16.30;;
3959;SDS011;1994;48.640;8.894;2023-04-19T06:52:37;25.40;;;13.30;;
3959;SDS011;1994;48.640;8.894;2023-04-19T06:55:06;18.77;;;12.40;;
3959;SDS011;1994;48.640;8.894;2023-04-19T06:57:33;25.10;;;15.00;;
3959;SDS011;1994;48.640;8.894;2023-04-19T06:59:59;17.40;;;11.37;;
3959;SDS011;1994;48.640;8.894;2023-04-19T07:02:25;22.60;;;13.03;;
3959;SDS011;1994;48.640;8.894;2023-04-19T07:04:51;18.90;;;11.77;;
3959;SDS011;1994;48.640;8.894;2023-04-19T07:07:17;34.23;;;15.77;;
3959;SDS011;1994;48.640;8.894;2023-04-19T07:09:42;21.73;;;12.30;;
3959;SDS011;1994;48.640;8.894;2023-04-19T07:12:08;20.30;;;10.57;;
3959;SDS011;1994;48.640;8.894;2023-04-19T07:14:34;17.87;;;11.30;;
3959;SDS011;1994;48.640;8.894;2023-04-19T07:17:00;19.20;;;13.60;;
3959;SDS011;1994;48.640;8.894;2023-04-19T07:19:27;16.30;;;10.73;;
3959;SDS011;1994;48.640;8.894;2023-04-19T07:21:53;23.43;;;13.10;;
3959;SDS011;1994;48.640;8.894;2023-04-19T07:24:19;15.90;;;10.13;;
3959;SDS011;1994;48.640;8.894;2023-04-19T07:26:45;22.03;;;10.50;;
3959;SDS011;1994;48.640;8.894;2023-04-19T07:29:10;12.40;;;9.13;;
3959;SDS011;1994;48.640;8.894;2023-04-19T07:31:36;13.17;;;9.77;;
3959;SDS011;1994;48.640;8.894;2023-04-19T07:34:02;12.10;;;8.30;;
3959;SDS011;1994;48.640;8.894;2023-04-19T07:36:28;16.00;;;9.37;;
3959;SDS011;1994;48.640;8.894;2023-04-19T07:38:54;10.53;;;8.30;;
3959;SDS011;1994;48.640;8.894;2023-04-19T07:41:20;11.63;;;7.90;;
3959;SDS011;1994;48.640;8.894;2023-04-19T07:43:46;12.17;;;8.60;;
3959;SDS011;1994;48.640;8.894;2023-04-19T07:46:12;12.97;;;8.97;;
3959;SDS011;1994;48.640;8.894;2023-04-19T07:48:42;10.53;;;8.20;;
3959;SDS011;1994;48.640;8.894;2023-04-19T07:51:11;12.77;;;8.27;;
3959;SDS011;1994;48.640;8.894;2023-04-19T07:53:41;11.33;;;8.53;;
3959;SDS011;1994;48.640;8.894;2023-04-19T07:56:08;8.33;;;6.77;;
3959;SDS011;1994;48.640;8.894;2023-04-19T07:58:35;11.17;;;7.70;;
3959;SDS011;1994;48.640;8.894;2023-04-19T08:01:02;8.70;;;6.90;;
3959;SDS011;1994;48.640;8.894;2023-04-19T08:03:29;13.07;;;7.87;;
3959;SDS011;1994;48.640;8.894;2023-04-19T08:05:57;11.07;;;8.30;;
3959;SDS011;1994;48.640;8.894;2023-04-19T08:08:26;10.03;;;7.60;;
3959;SDS011;1994;48.640;8.894;2023-04-19T08:10:52;7.77;;;6.73;;
3959;SDS011;1994;48.640;8.894;2023-04-19T08:13:20;10.63;;;6.33;;
3959;SDS011;1994;48.640;8.894;2023-04-19T08:15:46;10.17;;;7.50;;
3959;SDS011;1994;48.640;8.894;2023-04-19T08:18:12;9.47;;;7.33;;
3959;SDS011;1994;48.640;8.894;2023-04-19T08:20:38;10.93;;;6.17;;
3959;SDS011;1994;48.640;8.894;2023-04-19T08:23:06;10.40;;;7.83;;
3959;SDS011;1994;48.640;8.894;2023-04-19T08:25:33;10.37;;;8.20;;
3959;SDS011;1994;48.640;8.894;2023-04-19T08:27:59;10.17;;;8.37;;
3959;SDS011;1994;48.640;8.894;2023-04-19T08:30:25;10.50;;;6.80;;
3959;SDS011;1994;48.640;8.894;2023-04-19T08:32:51;6.97;;;6.17;;
3959;SDS011;1994;48.640;8.894;2023-04-19T08:35:17;10.60;;;7.50;;
3959;SDS011;1994;48.640;8.894;2023-04-19T08:37:42;11.30;;;8.00;;
3959;SDS011;1994;48.640;8.894;2023-04-19T08:40:08;9.30;;;6.40;;
3959;SDS011;1994;48.640;8.894;2023-04-19T08:42:35;8.30;;;6.50;;
3959;SDS011;1994;48.640;8.894;2023-04-19T08:45:01;9.20;;;7.00;;
3959;SDS011;1994;48.640;8.894;2023-04-19T08:47:32;8.13;;;6.50;;
3959;SDS011;1994;48.640;8.894;2023-04-19T08:49:59;8.23;;;6.70;;
3959;SDS011;1994;48.640;8.894;2023-04-19T08:52:27;12.70;;;7.60;;
3959;SDS011;1994;48.640;8.894;2023-04-19T08:54:54;12.07;;;7.63;;
3959;SDS011;1994;48.640;8.894;2023-04-19T08:57:21;10.70;;;7.27;;
3959;SDS011;1994;48.640;8.894;2023-04-19T08:59:47;7.10;;;6.40;;
3959;SDS011;1994;48.640;8.894;2023-04-19T09:02:19;9.40;;;7.07;;
3959;SDS011;1994;48.640;8.894;2023-04-19T09:04:46;12.30;;;7.93;;
3959;SDS011;1994;48.640;8.894;2023-04-19T09:07:24;9.13;;;6.83;;
3959;SDS011;1994;48.640;8.894;2023-04-19T09:10:04;9.10;;;7.17;;
3959;SDS011;1994;48.640;8.894;2023-04-19T09:12:33;7.50;;;6.70;;
3959;SDS011;1994;48.640;8.894;2023-04-19T09:15:00;12.30;;;6.60;;
3959;SDS011;1994;48.640;8.894;2023-04-19T09:17:28;9.33;;;6.90;;
3959;SDS011;1994;48.640;8.894;2023-04-19T09:19:55;9.00;;;7.07;;
3959;SDS011;1994;48.640;8.894;2023-04-19T09:22:22;14.93;;;7.60;;
3959;SDS011;1994;48.640;8.894;2023-04-19T09:24:48;13.17;;;8.57;;
3959;SDS011;1994;48.640;8.894;2023-04-19T09:27:16;9.53;;;5.90;;
3959;SDS011;1994;48.640;8.894;2023-04-19T09:29:59;15.23;;;11.10;;
3959;SDS011;1994;48.640;8.894;2023-04-19T09:32:26;13.97;;;9.30;;
3959;SDS011;1994;48.640;8.894;2023-04-19T09:34:57;10.57;;;6.63;;
3959;SDS011;1994;48.640;8.894;2023-04-19T09:37:24;10.20;;;6.63;;
3959;SDS011;1994;48.640;8.894;2023-04-19T09:39:51;17.10;;;12.00;;
3959;SDS011;1994;48.640;8.894;2023-04-19T09:42:17;8.87;;;7.40;;
3959;SDS011;1994;48.640;8.894;2023-04-19T09:44:57;8.00;;;6.20;;
3959;SDS011;1994;48.640;8.894;2023-04-19T09:47:24;6.10;;;5.50;;
3959;SDS011;1994;48.640;8.894;2023-04-19T09:50:08;8.03;;;6.70;;
3959;SDS011;1994;48.640;8.894;2023-04-19T09:52:36;6.37;;;5.27;;
3959;SDS011;1994;48.640;8.894;2023-04-19T09:55:05;6.43;;;5.83;;
3959;SDS011;1994;48.640;8.894;2023-04-19T09:57:32;8.83;;;6.83;;
3959;SDS011;1994;48.640;8.894;2023-04-19T09:59:59;7.50;;;5.23;;
3959;SDS011;1994;48.640;8.894;2023-04-19T10:02:29;8.13;;;5.40;;
3959;SDS011;1994;48.640;8.894;2023-04-19T10:04:57;6.77;;;6.00;;
3959;SDS011;1994;48.640;8.894;2023-04-19T10:07:23;5.10;;;4.60;;
3959;SDS011;1994;48.640;8.894;2023-04-19T10:09:49;5.23;;;4.73;;
3959;SDS011;1994;48.640;8.894;2023-04-19T10:12:18;6.80;;;4.97;;
3959;SDS011;1994;48.640;8.894;2023-04-19T10:14:47;8.37;;;5.30;;
3959;SDS011;1994;48.640;8.894;2023-04-19T10:17:13;6.10;;;5.60;;
3959;SDS011;1994;48.640;8.894;2023-04-19T10:19:40;6.73;;;4.87;;
3959;SDS011;1994;48.640;8.894;2023-04-19T10:22:09;5.80;;;5.30;;
3959;SDS011;1994;48.640;8.894;2023-04-19T10:24:36;6.23;;;5.63;;
3959;SDS011;1994;48.640;8.894;2023-04-19T10:32:36;8.10;;;5.73;;
3959;SDS011;1994;48.640;8.894;2023-04-19T10:35:15;8.67;;;5.70;;
3959;SDS011;1994;48.640;8.894;2023-04-19T10:45:57;7.60;;;6.57;;
3959;SDS011;1994;48.640;8.894;2023-04-19T10:51:22;5.77;;;5.27;;
3959;SDS011;1994;48.640;8.894;2023-04-19T10:54:03;6.30;;;5.50;;
3959;SDS011;1994;48.640;8.894;2023-04-19T10:56:58;5.37;;;4.90;;
3959;SDS011;1994;48.640;8.894;2023-04-19T10:59:36;8.00;;;5.93;;
3959;SDS011;1994;48.640;8.894;2023-04-19T11:02:08;8.80;;;5.40;;
3959;SDS011;1994;48.640;8.894;2023-04-19T11:07:18;7.63;;;5.63;;
3959;SDS011;1994;48.640;8.894;2023-04-19T11:09:47;6.43;;;5.83;;
3959;SDS011;1994;48.640;8.894;2023-04-19T11:12:14;6.00;;;5.40;;
3959;SDS011;1994;48.640;8.894;2023-04-19T11:14:43;6.40;;;5.37;;
3959;SDS011;1994;48.640;8.894;2023-04-19T11:22:40;7.70;;;6.73;;
3959;SDS011;1994;48.640;8.894;2023-04-19T11:25:15;6.47;;;5.40;;
3959;SDS011;1994;48.640;8.894;2023-04-19T11:27:47;6.73;;;5.40;;
3959;SDS011;1994;48.640;8.894;2023-04-19T11:30:21;7.53;;;6.30;;
3959;SDS011;1994;48.640;8.894;2023-04-19T11:32:55;6.30;;;5.80;;
3959;SDS011;1994;48.640;8.894;2023-04-19T11:35:25;5.83;;;5.37;;
3959;SDS011;1994;48.640;8.894;2023-04-19T11:37:52;5.47;;;4.97;;
3959;SDS011;1994;48.640;8.894;2023-04-19T11:40:20;6.33;;;5.37;;
3959;SDS011;1994;48.640;8.894;2023-04-19T11:42:58;6.43;;;5.73;;
3959;SDS011;1994;48.640;8.894;2023-04-19T11:45:30;10.13;;;8.10;;
3959;SDS011;1994;48.640;8.894;2023-04-19T11:48:01;11.87;;;6.50;;
3959;SDS011;1994;48.640;8.894;2023-04-19T11:53:09;10.30;;;6.20;;
3959;SDS011;1994;48.640;8.894;2023-04-19T11:55:46;12.90;;;9.13;;
3959;SDS011;1994;48.640;8.894;2023-04-19T12:00:56;9.40;;;7.03;;
3959;SDS011;1994;48.640;8.894;2023-04-19T12:03:30;8.00;;;5.60;;
3959;SDS011;1994;48.640;8.894;2023-04-19T12:05:58;10.57;;;7.57;;
3959;SDS011;1994;48.640;8.894;2023-04-19T12:08:31;7.57;;;5.83;;
3959;SDS011;1994;48.640;8.894;2023-04-19T12:11:01;9.20;;;7.07;;
3959;SDS011;1994;48.640;8.894;2023-04-19T12:13:29;11.23;;;7.33;;
3959;SDS011;1994;48.640;8.894;2023-04-19T12:15:56;19.90;;;13.13;;
3959;SDS011;1994;48.640;8.894;2023-04-19T12:18:23;11.90;;;7.47;;
3959;SDS011;1994;48.640;8.894;2023-04-19T12:20:50;11.70;;;8.60;;
3959;SDS011;1994;48.640;8.894;2023-04-19T12:23:17;10.73;;;8.10;;
3959;SDS011;1994;48.640;8.894;2023-04-19T12:25:45;21.03;;;7.80;;
3959;SDS011;1994;48.640;8.894;2023-04-19T12:28:13;8.80;;;6.93;;
3959;SDS011;1994;48.640;8.894;2023-04-19T12:30:40;10.80;;;6.40;;
3959;SDS011;1994;48.640;8.894;2023-04-19T12:33:07;10.50;;;7.13;;
3959;SDS011;1994;48.640;8.894;2023-04-19T12:35:34;13.27;;;8.90;;
3959;SDS011;1994;48.640;8.894;2023-04-19T12:38:00;11.83;;;8.10;;
3959;SDS011;1994;48.640;8.894;2023-04-19T12:40:26;7.70;;;6.33;;
3959;SDS011;1994;48.640;8.894;2023-04-19T12:42:53;9.83;;;7.90;;
3959;SDS011;1994;48.640;8.894;2023-04-19T12:45:19;12.80;;;10.83;;
3959;SDS011;1994;48.640;8.894;2023-04-19T12:47:45;10.77;;;8.00;;
3959;SDS011;1994;48.640;8.894;2023-04-19T12:50:13;12.53;;;9.37;;
3959;SDS011;1994;48.640;8.894;2023-04-19T12:52:40;11.10;;;8.30;;
3959;SDS011;1994;48.640;8.894;2023-04-19T12:55:08;19.30;;;13.23;;
3959;SDS011;1994;48.640;8.894;2023-04-19T12:57:34;12.07;;;7.83;;
3959;SDS011;1994;48.640;8.894;2023-04-19T13:00:00;8.83;;;7.50;;
3959;SDS011;1994;48.640;8.894;2023-04-19T13:02:25;7.57;;;6.67;;
3959;SDS011;1994;48.640;8.894;2023-04-19T13:04:51;10.00;;;7.23;;
3959;SDS011;1994;48.640;8.894;2023-04-19T13:07:17;9.03;;;8.00;;
3959;SDS011;1994;48.640;8.894;2023-04-19T13:09:43;11.03;;;8.70;;
3959;SDS011;1994;48.640;8.894;2023-04-19T13:12:08;7.53;;;6.00;;
3959;SDS011;1994;48.640;8.894;2023-04-19T13:14:34;8.87;;;6.87;;
3959;SDS011;1994;48.640;8.894;2023-04-19T13:17:00;8.30;;;7.40;;
3959;SDS011;1994;48.640;8.894;2023-04-19T13:19:25;7.30;;;6.53;;
3959;SDS011;1994;48.640;8.894;2023-04-19T13:21:51;8.73;;;6.80;;
3959;SDS011;1994;48.640;8.894;2023-04-19T13:24:17;8.57;;;6.80;;
3959;SDS011;1994;48.640;8.894;2023-04-19T13:26:43;8.40;;;6.67;;
3959;SDS011;1994;48.640;8.894;2023-04-19T13:29:11;9.30;;;7.13;;
3959;SDS011;1994;48.640;8.894;2023-04-19T13:31:37;9.47;;;7.57;;
3959;SDS011;1994;48.640;8.894;2023-04-19T13:34:03;11.77;;;8.27;;
3959;SDS011;1994;48.640;8.894;2023-04-19T13:36:29;11.43;;;9.13;;
3959;SDS011;1994;48.640;8.894;2023-04-19T13:38:55;12.90;;;8.57;;
3959;SDS011;1994;48.640;8.894;2023-04-19T13:41:21;16.70;;;10.27;;
3959;SDS011;1994;48.640;8.894;2023-04-19T13:43:47;13.77;;;9.30;;
3959;SDS011;1994;48.640;8.894;2023-04-19T13:46:12;13.97;;;8.23;;
3959;SDS011;1994;48.640;8.894;2023-04-19T13:48:38;16.47;;;10.93;;
3959;SDS011;1994;48.640;8.894;2023-04-19T13:51:04;15.57;;;10.57;;
3959;SDS011;1994;48.640;8.894;2023-04-19T13:53:30;19.73;;;11.60;;
3959;SDS011;1994;48.640;8.894;2023-04-19T13:55:56;18.33;;;10.47;;
3959;SDS011;1994;48.640;8.894;2023-04-19T13:58:22;18.63;;;10.93;;
3959;SDS011;1994;48.640;8.894;2023-04-19T14:00:50;18.37;;;12.60;;
3959;SDS011;1994;48.640;8.894;2023-04-19T14:03:17;20.10;;;12.23;;
3959;SDS011;1994;48.640;8.894;2023-04-19T14:05:43;23.10;;;12.07;;
3959;SDS011;1994;48.640;8.894;2023-04-19T14:08:09;14.97;;;9.60;;
3959;SDS011;1994;48.640;8.894;2023-04-19T14:10:35;13.80;;;10.00;;
3959;SDS011;1994;48.640;8.894;2023-04-19T14:13:02;12.67;;;9.10;;
3959;SDS011;1994;48.640;8.894;2023-04-19T14:15:27;14.13;;;10.53;;
3959;SDS011;1994;48.640;8.894;2023-04-19T14:17:53;20.60;;;13.17;;
3959;SDS011;1994;48.640;8.894;2023-04-19T14:20:19;14.30;;;10.30;;
3959;SDS011;1994;48.640;8.894;2023-04-19T14:22:45;13.43;;;9.30;;
3959;SDS011;1994;48.640;8.894;2023-04-19T14:25:11;14.77;;;8.73;;
3959;SDS011;1994;48.640;8.894;2023-04-19T14:27:39;16.20;;;9.70;;
3959;SDS011;1994;48.640;8.894;2023-04-19T14:30:05;16.00;;;8.10;;
3959;SDS011;1994;48.640;8.894;2023-04-19T14:32:32;13.60;;;9.43;;
3959;SDS011;1994;48.640;8.894;2023-04-19T14:34:58;18.47;;;9.90;;
3959;SDS011;1994;48.640;8.894;2023-04-19T14:37:24;13.53;;;10.00;;
3959;SDS011;1994;48.640;8.894;2023-04-19T14:39:50;15.90;;;10.40;;
3959;SDS011;1994;48.640;8.894;2023-04-19T14:42:16;18.10;;;10.87;;
3959;SDS011;1994;48.640;8.894;2023-04-19T14:44:43;16.50;;;11.80;;
3959;SDS011;1994;48.640;8.894;2023-04-19T14:47:09;15.03;;;11.00;;
3959;SDS011;1994;48.640;8.894;2023-04-19T14:49:35;15.43;;;10.03;;
3959;SDS011;1994;48.640;8.894;2023-04-19T14:52:02;20.03;;;10.60;;
3959;SDS011;1994;48.640;8.894;2023-04-19T14:54:28;28.23;;;17.87;;
3959;SDS011;1994;48.640;8.894;2023-04-19T14:56:54;23.47;;;14.80;;
3959;SDS011;1994;48.640;8.894;2023-04-19T14:59:20;24.17;;;14.93;;
3959;SDS011;1994;48.640;8.894;2023-04-19T15:01:46;32.73;;;20.57;;
3959;SDS011;1994;48.640;8.894;2023-04-19T15:04:11;19.77;;;13.27;;
3959;SDS011;1994;48.640;8.894;2023-04-19T15:06:37;21.60;;;13.13;;
3959;SDS011;1994;48.640;8.894;2023-04-19T15:09:03;32.70;;;22.57;;
3959;SDS011;1994;48.640;8.894;2023-04-19T15:11:29;21.10;;;12.57;;
3959;SDS011;1994;48.640;8.894;2023-04-19T15:13:55;27.77;;;16.93;;
3959;SDS011;1994;48.640;8.894;2023-04-19T15:16:20;21.37;;;10.33;;
3959;SDS011;1994;48.640;8.894;2023-04-19T15:18:46;15.10;;;10.27;;
3959;SDS011;1994;48.640;8.894;2023-04-19T15:21:12;15.13;;;10.03;;
3959;SDS011;1994;48.640;8.894;2023-04-19T15:23:37;12.30;;;8.30;;
3959;SDS011;1994;48.640;8.894;2023-04-19T15:26:03;15.10;;;9.50;;
3959;SDS011;1994;48.640;8.894;2023-04-19T15:28:29;12.00;;;8.00;;
3959;SDS011;1994;48.640;8.894;2023-04-19T15:31:00;11.97;;;9.10;;